Latest Weather Observations for Point Wilson

IDV60801

Issued at 8:42 pm EST Thursday 13 June 2024 (issued every 10 minutes, with the page automatically refreshed every 10 minutes)

About weather observations | Map of weather stations | Latest weather observations for VIC | Other Formats
Station Details ID: 087166 Name: POINT WILSON Lat: -38.10 Lon: 144.54 Height: 18.0 m
Data from the previous 72 hours. | See also: Recent months at Point Wilson
Date/Time
EST
Temp
°C
App
Temp
°C
Dew
Point
°C
Rel
Hum
%
Delta-T
°C
Wind Press
QNH
hPa
Press
MSL
hPa
Rain since
9am
mm
Dir  Spd
km/h
Gust
km/h
Spd
kts
Gust
kts
13/08:30pm - - - - - SW 7 9 4 5 - - -
13/08:00pm - - - - - SW 11 13 6 7 - - -
13/07:30pm - - - - - SW 15 17 8 9 - - -
13/07:00pm - - - - - SSW 13 15 7 8 - - -
13/06:30pm - - - - - SSW 15 17 8 9 - - -
13/06:00pm - - - - - SSW 13 15 7 8 - - -
13/05:30pm - - - - - SSW 7 11 4 6 - - -
13/05:00pm - - - - - S 6 7 3 4 - - -
13/04:30pm - - - - - SSW 7 9 4 5 - - -
13/04:00pm - - - - - WSW 11 13 6 7 - - -
13/03:30pm - - - - - WSW 11 15 6 8 - - -
13/03:00pm - - - - - WSW 17 20 9 11 - - -
13/02:30pm - - - - - W 17 20 9 11 - - -
13/02:00pm - - - - - W 17 20 9 11 - - -
13/01:30pm - - - - - W 17 19 9 10 - - -
13/01:00pm - - - - - SW 15 17 8 9 - - -
13/12:30pm - - - - - WSW 11 15 6 8 - - -
13/12:00pm - - - - - W 15 19 8 10 - - -
13/11:30am - - - - - WSW 15 19 8 10 - - -
13/11:00am - - - - - WNW 11 17 6 9 - - -
13/10:30am - - - - - W 17 20 9 11 - - -
13/10:00am - - - - - WNW 19 22 10 12 - - -
13/09:30am - - - - - WSW 15 20 8 11 - - -
13/09:00am - - - - - W 17 20 9 11 - - -
13/08:30am - - - - - W 20 26 11 14 - - -
13/08:00am - - - - - WSW 24 30 13 16 - - -
13/07:30am - - - - - W 15 20 8 11 - - -
13/07:00am - - - - - W 15 17 8 9 - - -
13/06:30am - - - - - WSW 20 26 11 14 - - -
13/06:00am - - - - - WSW 9 13 5 7 - - -
13/05:30am - - - - - SW 13 17 7 9 - - -
13/05:00am - - - - - SW 17 20 9 11 - - -
13/04:30am - - - - - SW 13 17 7 9 - - -
13/04:00am - - - - - W 17 20 9 11 - - -
13/03:30am - - - - - WNW 13 17 7 9 - - -
13/03:00am - - - - - WNW 17 20 9 11 - - -
13/02:30am - - - - - W 17 20 9 11 - - -
13/02:00am - - - - - WSW 13 17 7 9 - - -
13/01:30am - - - - - SW 13 19 7 10 - - -
13/01:00am - - - - - SW 17 20 9 11 - - -
13/12:30am - - - - - WSW 19 22 10 12 - - -
13/12:00am - - - - - W 13 17 7 9 - - -
 
Date/Time
EST
Temp
°C
App
Temp
°C
Dew
Point
°C
Rel
Hum
%
Delta-T
°C
Wind Press
QNH
hPa
Press
MSL
hPa
Rain since
9am
mm
Dir  Spd
km/h
Gust
km/h
Spd
kts
Gust
kts
12/11:30pm - - - - - W 13 19 7 10 - - -
12/11:00pm - - - - - WNW 9 17 5 9 - - -
12/10:30pm - - - - - WSW 15 19 8 10 - - -
12/10:00pm - - - - - WSW 19 24 10 13 - - -
12/09:30pm - - - - - WSW 26 32 14 17 - - -
12/09:00pm - - - - - SW 22 28 12 15 - - -
12/08:30pm - - - - - SW 22 30 12 16 - - -
12/08:00pm - - - - - SW 19 22 10 12 - - -
12/07:30pm - - - - - SW 26 32 14 17 - - -
12/07:00pm - - - - - WSW 22 24 12 13 - - -
12/06:30pm - - - - - SW 26 30 14 16 - - -
12/06:00pm - - - - - SW 32 37 17 20 - - -
12/05:30pm - - - - - SW 28 33 15 18 - - -
12/05:00pm - - - - - SW 28 35 15 19 - - -
12/04:30pm - - - - - SW 26 33 14 18 - - -
12/04:00pm - - - - - SW 28 35 15 19 - - -
12/03:30pm - - - - - SW 26 32 14 17 - - -
12/03:00pm - - - - - SW 30 39 16 21 - - -
12/02:30pm - - - - - SW 26 33 14 18 - - -
12/02:00pm - - - - - SSW 30 37 16 20 - - -
12/01:30pm - - - - - SW 30 37 16 20 - - -
12/01:00pm - - - - - SW 32 37 17 20 - - -
12/12:30pm - - - - - SW 28 33 15 18 - - -
12/12:00pm - - - - - SW 30 44 16 24 - - -
12/11:30am - - - - - WSW 22 28 12 15 - - -
12/11:00am - - - - - SW 35 48 19 26 - - -
12/10:54am - - - - - SW 28 48 15 26 - - -
12/10:30am - - - - - SW 24 30 13 16 - - -
12/10:00am - - - - - SW 26 33 14 18 - - -
12/09:30am - - - - - SW 30 37 16 20 - - -
12/09:00am - - - - - SW 28 35 15 19 - - -
12/08:30am - - - - - SW 32 39 17 21 - - -
12/08:00am - - - - - SW 33 43 18 23 - - -
12/07:30am - - - - - SW 39 54 21 29 - - -
12/07:24am - - - - - SW 35 54 19 29 - - -
12/07:00am - - - - - SW 35 44 19 24 - - -
12/06:30am - - - - - SSW 43 56 23 30 - - -
12/06:21am - - - - - SSW 33 54 18 29 - - -
12/06:00am - - - - - SW 37 44 20 24 - - -
12/05:30am - - - - - SW 39 50 21 27 - - -
12/05:00am - - - - - SW 32 41 17 22 - - -
12/04:45am - - - - - WSW 43 52 23 28 - - -
12/04:30am - - - - - W 41 52 22 28 - - -
12/04:00am - - - - - WSW 35 44 19 24 - - -
12/03:30am - - - - - W 35 48 19 26 - - -
12/03:00am - - - - - WSW 33 39 18 21 - - -
12/02:30am - - - - - WSW 32 39 17 21 - - -
12/02:00am - - - - - WSW 32 39 17 21 - - -
12/01:30am - - - - - WSW 30 37 16 20 - - -
12/01:00am - - - - - W 37 48 20 26 - - -
12/12:30am - - - - - W 35 43 19 23 - - -
12/12:00am - - - - - W 41 50 22 27 - - -
 
Date/Time
EST
Temp
°C
App
Temp
°C
Dew
Point
°C
Rel
Hum
%
Delta-T
°C
Wind Press
QNH
hPa
Press
MSL
hPa
Rain since
9am
mm
Dir  Spd
km/h
Gust
km/h
Spd
kts
Gust
kts
11/11:30pm - - - - - W 39 48 21 26 - - -
11/11:00pm - - - - - W 32 41 17 22 - - -
11/10:30pm - - - - - W 26 37 14 20 - - -
11/10:00pm - - - - - W 37 44 20 24 - - -
11/09:30pm - - - - - W 32 44 17 24 - - -
11/09:00pm - - - - - W 30 41 16 22 - - -
11/08:30pm - - - - - W 32 43 17 23 - - -
11/08:00pm - - - - - W 28 39 15 21 - - -
11/07:30pm - - - - - WNW 24 33 13 18 - - -
11/07:00pm - - - - - WNW 19 22 10 12 - - -
11/06:30pm - - - - - WNW 26 35 14 19 - - -
11/06:00pm - - - - - WNW 19 26 10 14 - - -
11/05:30pm - - - - - WNW 20 30 11 16 - - -
11/05:00pm - - - - - W 20 28 11 15 - - -
11/04:30pm - - - - - SW 24 30 13 16 - - -
11/04:00pm - - - - - W 30 37 16 20 - - -
11/03:49pm - - - - - W 33 43 18 23 - - -
11/03:30pm - - - - - W 39 50 21 27 - - -
11/03:00pm - - - - - W 33 43 18 23 - - -
11/02:58pm - - - - - W 33 43 18 23 - - -
11/02:30pm - - - - - W 50 67 27 36 - - -
11/02:27pm - - - - - W 46 59 25 32 - - -
11/02:18pm - - - - - WNW 41 56 22 30 - - -
11/02:00pm - - - - - NW 44 59 24 32 - - -
11/01:30pm - - - - - NW 30 50 16 27 - - -
11/01:17pm - - - - - NW 28 50 15 27 - - -
11/01:00pm - - - - - NW 28 46 15 25 - - -
11/12:30pm - - - - - NW 28 48 15 26 - - -
11/12:00pm - - - - - NW 48 61 26 33 - - -
11/11:38am - - - - - WNW 48 69 26 37 - - -
11/11:30am - - - - - NW 48 67 26 36 - - -
11/11:00am - - - - - NNW 33 57 18 31 - - -
11/10:30am - - - - - NW 30 54 16 29 - - -
11/10:19am - - - - - NNW 28 52 15 28 - - -
11/10:00am - - - - - NNW 24 43 13 23 - - -
11/09:30am - - - - - NNW 24 46 13 25 - - -
11/09:00am - - - - - NNW 24 52 13 28 - - -
11/08:30am - - - - - NNW 24 46 13 25 - - -
11/08:05am - - - - - NNW 28 52 15 28 - - -
11/08:00am - - - - - NNW 26 46 14 25 - - -
11/07:52am - - - - - NNW 28 46 15 25 - - -
11/07:30am - - - - - NNW 22 56 12 30 - - -
11/07:08am - - - - - NNW 28 50 15 27 - - -
11/07:00am - - - - - NNW 24 50 13 27 - - -
11/06:30am - - - - - N 13 33 7 18 - - -
11/06:00am - - - - - N 9 33 5 18 - - -
11/05:30am - - - - - NNW 28 61 15 33 - - -
11/05:00am - - - - - NNW 24 57 13 31 - - -
11/04:58am - - - - - NNW 24 57 13 31 - - -
11/04:30am - - - - - N 13 33 7 18 - - -
11/04:00am - - - - - NNW 6 30 3 16 - - -
11/03:30am - - - - - N 7 30 4 16 - - -
11/03:00am - - - - - N 11 39 6 21 - - -
11/02:30am - - - - - N 9 37 5 20 - - -
11/02:00am - - - - - N 7 20 4 11 - - -
11/01:30am - - - - - N 4 15 2 8 - - -
11/01:00am - - - - - NNW 9 26 5 14 - - -
11/12:30am - - - - - N 7 30 4 16 - - -
11/12:00am - - - - - NNW 7 33 4 18 - - -
 
Date/Time
EST
Temp
°C
App
Temp
°C
Dew
Point
°C
Rel
Hum
%
Delta-T
°C
Wind Press
QNH
hPa
Press
MSL
hPa
Rain since
9am
mm
Dir  Spd
km/h
Gust
km/h
Spd
kts
Gust
kts
10/11:30pm - - - - - N 7 19 4 10 - - -
10/11:00pm - - - - - NNW 7 28 4 15 - - -
10/10:30pm - - - - - NNW 6 20 3 11 - - -
10/10:00pm - - - - - NNW 6 19 3 10 - - -
10/09:30pm - - - - - NNW 6 19 3 10 - - -
10/09:00pm - - - - - N 6 22 3 12 - - -

Other formats

Comma delimited format used in spreadsheet applications
http://www.bom.gov.au/fwo/IDV60801/IDV60801.94847.axf

JavaScript Object Notation format (JSON) in row-major order
http://www.bom.gov.au/fwo/IDV60801/IDV60801.94847.json

Data quality

Most of these data are generated automatically and are frequently updated. Quality checks on data are not normally performed. It is possible for incorrect values to appear. Refer to information at About Latest Weather Observations and please check the disclaimer before using these data.